Aviation Digital Data Service (ADDS)

Output produced by METARs form (1719 UTC 30 October 2020)
found at http://www.aviationweather.gov/metar/data/
 
KAND 301656Z AUTO 03005KT 10SM CLR 19/08 A3007 RMK AO2 SLP176 T01940078
KAND 301131Z 3012/3112 24007KT P6SM SKC 
     FM301400 29008KT P6SM SKC 
     FM301700 32006KT P6SM SKC 
     FM302100 02007KT P6SM SKC